Terminal Aerodrome Forecast
Issued by NWS Twin Cities, MN

Home | Current Version | Previous Version | Graphics & Text | Print | Product List | Glossary On
Versions: 1 2 3 4 5 6 7 8 9 10 11 12
283
FTUS43 KMPX 181120
TAFSTC
TAF
KSTC 181120Z 1812/1912 18010KT P6SM FEW250
     FM181700 28015G24KT P6SM FEW250
     FM190000 27006KT P6SM SKC=

USA.gov is the U.S. government's official web portal to all federal, state and local government web resources and services.